Terminal Aerodrome Forecast
Issued by NWS Newport/Morehead City, NC

Home | Current Version | Previous Version | Graphics & Text | Print | Product List | Glossary On
Versions: 1 2 3 4 5 6 7 8 9 10 11 12 13 14 15 16 17 18 19
000
FTUS42 KMHX 241844 AAA
TAFEWN
TAF AMD
KEWN 241844Z 2419/2518 02010KT 3/4SM -SN BR SCT008 OVC016
     FM242100 01009KT 3SM -FZRA BR OVC010
     FM250100 35005KT 4SM -RA BR OVC005
     FM250900 31004KT P6SM SCT030=

USA.gov is the U.S. government's official web portal to all federal, state and local government web resources and services.